createdAt,value
2022-11-24T00:00:46.127Z,943.84
2022-11-24T00:01:46.211Z,943.82
2022-11-24T00:02:47.133Z,943.8
2022-11-24T00:03:46.070Z,943.78
2022-11-24T00:04:46.079Z,943.8
2022-11-24T00:05:46.037Z,943.79
2022-11-24T00:06:46.142Z,943.82
2022-11-24T00:07:46.180Z,943.72
2022-11-24T00:08:46.107Z,943.74
2022-11-24T00:09:46.087Z,943.78
2022-11-24T00:10:46.067Z,943.84
2022-11-24T00:11:46.051Z,943.73
2022-11-24T00:12:46.036Z,943.76
2022-11-24T00:13:46.018Z,943.79
2022-11-24T00:14:45.997Z,943.79
2022-11-24T00:15:45.980Z,943.78
2022-11-24T00:16:46.031Z,943.78
2022-11-24T00:17:45.942Z,943.8
2022-11-24T00:18:45.923Z,943.75
2022-11-24T00:19:45.908Z,943.76
2022-11-24T00:20:45.913Z,943.73
2022-11-24T00:21:45.870Z,943.76
2022-11-24T00:22:45.855Z,943.74
2022-11-24T00:23:45.834Z,943.76
2022-11-24T00:24:45.820Z,943.73
2022-11-24T00:25:45.799Z,943.77
2022-11-24T00:26:45.782Z,943.74
2022-11-24T00:27:45.765Z,943.74
2022-11-24T00:28:45.745Z,943.72
2022-11-24T00:29:45.830Z,943.76
2022-11-24T00:30:45.745Z,943.74
2022-11-24T00:31:45.692Z,943.74
2022-11-24T00:32:45.676Z,943.72
2022-11-24T00:33:45.665Z,943.7
2022-11-24T00:34:45.640Z,943.68
2022-11-24T00:35:45.624Z,943.75
2022-11-24T00:36:45.631Z,943.74
2022-11-24T00:37:45.589Z,943.77
2022-11-24T00:38:45.571Z,943.85
2022-11-24T00:39:45.553Z,943.82
2022-11-24T00:40:45.534Z,943.82
2022-11-24T00:41:45.518Z,943.83
2022-11-24T00:42:45.501Z,943.83
2022-11-24T00:43:45.482Z,943.88
2022-11-24T00:44:45.463Z,943.87
2022-11-24T00:45:45.536Z,943.89
2022-11-24T00:46:45.555Z,943.86
2022-11-24T00:47:45.409Z,943.88
2022-11-24T00:48:45.395Z,943.92
2022-11-24T00:49:45.525Z,943.89
2022-11-24T00:50:45.363Z,943.93
2022-11-24T00:51:45.338Z,943.95
2022-11-24T00:52:45.351Z,943.94
2022-11-24T00:53:45.315Z,943.97
2022-11-24T00:54:45.386Z,944.01
2022-11-24T00:55:45.269Z,944.01
2022-11-24T00:56:45.252Z,944.03
2022-11-24T00:57:45.240Z,944.07
2022-11-24T00:58:45.217Z,943.98
2022-11-24T00:59:45.199Z,944.06
2022-11-24T01:00:45.183Z,944.04
2022-11-24T01:01:45.262Z,944.07
2022-11-24T01:02:45.219Z,944.07
2022-11-24T01:03:45.128Z,944.11
2022-11-24T01:04:45.261Z,944.03
2022-11-24T01:05:45.096Z,944.1
2022-11-24T01:06:45.236Z,944.06
2022-11-24T01:07:45.270Z,944.1
2022-11-24T01:08:45.225Z,944.07
2022-11-24T01:09:45.329Z,944.08
2022-11-24T01:10:45.163Z,944.08
2022-11-24T01:11:45.143Z,944.08
2022-11-24T01:12:45.125Z,944.14
2022-11-24T01:13:45.107Z,944.15
2022-11-24T01:14:45.090Z,944.14
2022-11-24T01:15:45.186Z,944.13
2022-11-24T01:16:45.054Z,944.11
2022-11-24T01:17:45.036Z,944.16
2022-11-24T01:18:45.019Z,944.16
2022-11-24T01:19:45.005Z,944.18
2022-11-24T01:20:44.983Z,944.18
2022-11-24T01:21:44.967Z,944.16
2022-11-24T01:22:44.948Z,944.21
2022-11-24T01:23:44.934Z,944.23
2022-11-24T01:24:44.940Z,944.24
2022-11-24T01:25:44.895Z,944.22
2022-11-24T01:26:44.876Z,944.22
2022-11-24T01:27:44.863Z,944.27
2022-11-24T01:28:47.300Z,944.21
2022-11-24T01:29:44.825Z,944.25
2022-11-24T01:30:44.826Z,944.3
2022-11-24T01:31:44.795Z,944.28
2022-11-24T01:32:44.772Z,944.28
2022-11-24T01:33:44.757Z,944.34
2022-11-24T01:34:44.736Z,944.36
2022-11-24T01:35:44.719Z,944.33
2022-11-24T01:36:44.700Z,944.38
2022-11-24T01:37:44.684Z,944.36
2022-11-24T01:38:44.669Z,944.34
2022-11-24T01:39:44.648Z,944.31
2022-11-24T01:40:44.656Z,944.38
2022-11-24T01:41:44.619Z,944.36
2022-11-24T01:42:44.597Z,944.36
2022-11-24T01:43:44.578Z,944.33
2022-11-24T01:44:44.561Z,944.4
2022-11-24T01:45:44.608Z,944.41
2022-11-24T01:46:44.524Z,944.43
2022-11-24T01:47:44.509Z,944.43
2022-11-24T01:48:44.490Z,944.47
2022-11-24T01:49:44.475Z,944.39
2022-11-24T01:50:44.453Z,944.47
2022-11-24T01:51:44.440Z,944.47
2022-11-24T01:52:44.419Z,944.47
2022-11-24T01:53:44.401Z,944.44
2022-11-24T01:54:44.383Z,944.55
2022-11-24T01:55:44.372Z,944.53
2022-11-24T01:56:44.374Z,944.57
2022-11-24T01:57:44.339Z,944.57
2022-11-24T01:58:44.312Z,944.56
2022-11-24T01:59:44.295Z,944.59
2022-11-24T02:00:44.276Z,944.59
2022-11-24T02:01:44.310Z,944.58
2022-11-24T02:02:44.326Z,944.63
2022-11-24T02:03:45.053Z,944.65
2022-11-24T02:04:45.036Z,944.66
2022-11-24T02:05:45.018Z,944.65
2022-11-24T02:06:45.001Z,944.71
2022-11-24T02:07:45.071Z,944.69
2022-11-24T02:08:44.966Z,944.66
2022-11-24T02:09:44.947Z,944.64
2022-11-24T02:10:44.931Z,944.71
2022-11-24T02:11:44.912Z,944.72
2022-11-24T02:12:44.923Z,944.79
2022-11-24T02:13:44.876Z,944.8
2022-11-24T02:14:44.859Z,944.78
2022-11-24T02:15:44.902Z,944.79
2022-11-24T02:16:44.827Z,944.71
2022-11-24T02:17:44.806Z,944.83
2022-11-24T02:18:44.790Z,944.81
2022-11-24T02:19:44.772Z,944.81
2022-11-24T02:20:44.761Z,944.87
2022-11-24T02:21:44.736Z,944.8
2022-11-24T02:22:44.718Z,944.81
2022-11-24T02:23:44.700Z,944.77
2022-11-24T02:24:44.684Z,944.73
2022-11-24T02:25:44.666Z,944.74
2022-11-24T02:26:44.648Z,944.8
2022-11-24T02:27:47.068Z,944.78
2022-11-24T02:28:44.635Z,944.78
2022-11-24T02:29:44.594Z,944.8
2022-11-24T02:30:44.610Z,944.8
2022-11-24T02:31:44.562Z,944.81
2022-11-24T02:32:44.543Z,944.82
2022-11-24T02:33:44.525Z,944.87
2022-11-24T02:34:44.505Z,944.94
2022-11-24T02:35:44.492Z,944.9
2022-11-24T02:36:44.472Z,944.92
2022-11-24T02:37:44.451Z,944.93
2022-11-24T02:38:44.435Z,944.91
2022-11-24T02:39:44.416Z,944.98
2022-11-24T02:40:44.400Z,944.9
2022-11-24T02:41:44.388Z,944.94
2022-11-24T02:42:44.363Z,944.92
2022-11-24T02:43:44.344Z,944.97
2022-11-24T02:44:44.355Z,944.92
2022-11-24T02:45:44.310Z,944.97
2022-11-24T02:46:44.352Z,944.94
2022-11-24T02:47:44.273Z,944.95
2022-11-24T02:48:44.257Z,944.94
2022-11-24T02:49:44.240Z,945
2022-11-24T02:50:44.219Z,944.97
2022-11-24T02:51:44.202Z,945.01
2022-11-24T02:52:44.186Z,945.04
2022-11-24T02:53:44.166Z,945.04
2022-11-24T02:54:44.152Z,945.04
2022-11-24T02:55:44.131Z,945.08
2022-11-24T02:56:44.114Z,945.05
2022-11-24T02:57:44.100Z,945.01
2022-11-24T02:58:44.076Z,945.1
2022-11-24T02:59:44.061Z,945.06
2022-11-24T03:00:44.066Z,945.12
2022-11-24T03:01:44.054Z,945.09
2022-11-24T03:02:44.028Z,945.09
2022-11-24T03:03:43.991Z,945.1
2022-11-24T03:04:43.974Z,945.09
2022-11-24T03:05:43.955Z,945.1
2022-11-24T03:06:43.937Z,945.16
2022-11-24T03:07:43.963Z,945.04
2022-11-24T03:08:43.899Z,945.1
2022-11-24T03:09:43.881Z,945.15
2022-11-24T03:10:43.865Z,945.16
2022-11-24T03:11:43.847Z,945.18
2022-11-24T03:12:43.834Z,945.14
2022-11-24T03:13:43.810Z,945.16
2022-11-24T03:14:43.792Z,945.1
2022-11-24T03:15:43.842Z,945.1
2022-11-24T03:16:43.796Z,945.09
2022-11-24T03:17:43.741Z,945.12
2022-11-24T03:18:43.720Z,945.14
2022-11-24T03:19:43.707Z,945.2
2022-11-24T03:20:43.686Z,945.17
2022-11-24T03:21:43.670Z,945.15
2022-11-24T03:22:43.649Z,945.16
2022-11-24T03:23:43.633Z,945.17
2022-11-24T03:24:43.613Z,945.15
2022-11-24T03:25:43.597Z,945.19
2022-11-24T03:26:43.578Z,945.2
2022-11-24T03:27:43.562Z,945.17
2022-11-24T03:28:43.545Z,945.25
2022-11-24T03:29:43.527Z,945.26
2022-11-24T03:30:43.566Z,945.22
2022-11-24T03:31:43.557Z,945.16
2022-11-24T03:32:43.500Z,945.17
2022-11-24T03:50:17.234Z,945.35
2022-11-24T03:51:17.192Z,945.37
2022-11-24T03:52:17.167Z,945.34
2022-11-24T03:53:17.148Z,945.39
2022-11-24T03:54:17.130Z,945.39
2022-11-24T03:55:17.110Z,945.44
2022-11-24T03:56:17.091Z,945.36
2022-11-24T03:57:17.070Z,945.39
2022-11-24T03:58:17.050Z,945.44
2022-11-24T03:59:17.033Z,945.43
2022-11-24T04:00:17.111Z,945.48
2022-11-24T04:01:17.046Z,945.4
2022-11-24T04:02:16.987Z,945.45
2022-11-24T04:03:16.959Z,945.49
2022-11-24T04:04:16.937Z,945.5
2022-11-24T04:05:16.922Z,945.51
2022-11-24T04:06:16.931Z,945.52
2022-11-24T04:07:16.949Z,945.54
2022-11-24T04:08:16.862Z,945.54
2022-11-24T04:09:16.845Z,945.58
2022-11-24T04:10:16.826Z,945.59
2022-11-24T04:11:16.809Z,945.59
2022-11-24T04:12:16.792Z,945.59
2022-11-24T04:13:16.773Z,945.58
2022-11-24T04:14:16.758Z,945.62
2022-11-24T04:15:16.738Z,945.61
2022-11-24T04:16:16.772Z,945.66
2022-11-24T04:17:16.709Z,945.61
2022-11-24T04:18:16.682Z,945.68
2022-11-24T04:19:16.663Z,945.71
2022-11-24T04:20:16.644Z,945.7
2022-11-24T04:21:16.628Z,945.7
2022-11-24T04:22:16.633Z,945.78
2022-11-24T04:23:16.597Z,945.71
2022-11-24T04:24:16.572Z,945.77
2022-11-24T04:25:16.708Z,945.78
2022-11-24T04:26:16.537Z,945.81
2022-11-24T04:27:16.526Z,945.78
2022-11-24T04:28:16.501Z,945.84
2022-11-24T04:29:16.484Z,945.82
2022-11-24T04:30:16.465Z,945.84
2022-11-24T04:31:16.514Z,945.84
2022-11-24T04:32:16.430Z,945.87
2022-11-24T04:33:16.418Z,945.88
2022-11-24T04:34:16.395Z,945.92
2022-11-24T04:35:17.245Z,945.9
2022-11-24T04:36:17.078Z,945.94
2022-11-24T04:37:17.060Z,945.94
2022-11-24T04:39:19.174Z,945.94
2022-11-24T04:39:34.387Z,945.92
2022-11-24T04:40:34.370Z,945.97
2022-11-24T04:41:34.351Z,946
2022-11-24T04:42:34.335Z,945.96
2022-11-24T04:43:39.220Z,945.97
2022-11-24T04:44:34.438Z,946.02
2022-11-24T04:45:34.437Z,945.98
2022-11-24T04:46:34.316Z,946.01
2022-11-24T04:47:34.246Z,946.04
2022-11-24T04:48:34.231Z,946.09
2022-11-24T04:49:34.209Z,946.09
2022-11-24T04:50:34.194Z,946.09
2022-11-24T04:51:34.177Z,946.06
2022-11-24T04:52:34.159Z,946.1
2022-11-24T04:53:34.168Z,946.11
2022-11-24T04:54:34.241Z,946.07
2022-11-24T04:55:34.257Z,946.07
2022-11-24T04:56:34.089Z,946.12
2022-11-24T04:57:34.070Z,946.1
2022-11-24T04:58:34.055Z,946.1
2022-11-24T04:59:34.038Z,946.16
2022-11-24T05:00:34.119Z,946.16
2022-11-24T05:01:34.066Z,946.21
2022-11-24T05:02:33.985Z,946.21
2022-11-24T05:03:33.965Z,946.22
2022-11-24T05:04:34.246Z,946.26
2022-11-24T05:05:34.031Z,946.31
2022-11-24T05:06:33.916Z,946.29
2022-11-24T05:07:33.912Z,946.31
2022-11-24T05:08:33.882Z,946.33
2022-11-24T05:09:55.186Z,946.33
2022-11-24T05:10:33.951Z,946.34
2022-11-24T05:11:33.827Z,946.35
2022-11-24T05:12:33.817Z,946.35
2022-11-24T05:13:33.790Z,946.39
2022-11-24T05:14:34.070Z,946.4
2022-11-24T05:15:33.909Z,946.39
2022-11-24T05:16:33.777Z,946.37
2022-11-24T05:17:33.726Z,946.45
2022-11-24T05:18:33.705Z,946.44
2022-11-24T05:19:33.690Z,946.42
2022-11-24T05:20:33.677Z,946.38
2022-11-24T05:21:33.652Z,946.41
2022-11-24T05:22:33.638Z,946.42
2022-11-24T05:23:33.619Z,946.43
2022-11-24T05:24:33.897Z,946.44
2022-11-24T05:25:33.612Z,946.46
2022-11-24T05:26:33.571Z,946.41
2022-11-24T05:27:33.552Z,946.42
2022-11-24T05:28:33.541Z,946.49
2022-11-24T05:32:31.030Z,946.52
2022-11-24T05:33:31.010Z,946.52
2022-11-24T05:34:31.210Z,946.56
2022-11-24T05:35:30.975Z,946.6
2022-11-24T05:36:30.958Z,946.58
2022-11-24T05:37:30.944Z,946.66
2022-11-24T05:38:30.928Z,946.62
2022-11-24T05:39:30.907Z,946.64
2022-11-24T05:40:30.890Z,946.62
2022-11-24T05:41:30.896Z,946.61
2022-11-24T05:42:30.859Z,946.68
2022-11-24T05:43:30.839Z,946.71
2022-11-24T05:44:30.919Z,946.7
2022-11-24T05:45:30.805Z,946.68
2022-11-24T05:46:30.822Z,946.7
2022-11-24T05:47:30.871Z,946.71
2022-11-24T05:48:30.755Z,946.7
2022-11-24T05:49:30.737Z,946.68
2022-11-24T05:50:30.723Z,946.71
2022-11-24T05:51:30.702Z,946.69
2022-11-24T05:52:30.689Z,946.73
2022-11-24T05:53:30.668Z,946.71
2022-11-24T05:54:30.757Z,946.72
2022-11-24T05:55:30.635Z,946.7
2022-11-24T05:56:30.620Z,946.71
2022-11-24T05:57:30.632Z,946.71
2022-11-24T05:58:30.593Z,946.74
2022-11-24T05:59:30.570Z,946.73
2022-11-24T06:00:30.553Z,946.73
2022-11-24T06:01:30.577Z,946.7
2022-11-24T06:02:30.613Z,946.78
2022-11-24T06:03:30.504Z,946.76
2022-11-24T06:04:30.489Z,946.76
2022-11-24T06:05:30.469Z,946.76
2022-11-24T06:06:30.453Z,946.75
2022-11-24T06:07:30.492Z,946.84
2022-11-24T06:08:31.314Z,946.88
2022-11-24T06:09:30.401Z,946.88
2022-11-24T06:10:30.499Z,946.87
2022-11-24T06:11:30.367Z,946.94
2022-11-24T06:12:30.353Z,946.95
2022-11-24T06:13:30.422Z,946.92
2022-11-24T06:14:30.321Z,946.94
2022-11-24T06:15:30.300Z,946.9
2022-11-24T06:16:30.308Z,946.96
2022-11-24T06:17:30.266Z,946.95
2022-11-24T06:18:30.255Z,946.95
2022-11-24T06:19:30.241Z,946.91
2022-11-24T06:20:32.773Z,946.96
2022-11-24T06:21:30.201Z,946.98
2022-11-24T06:22:30.184Z,946.97
2022-11-24T06:23:30.167Z,946.94
2022-11-24T06:24:30.152Z,946.97
2022-11-24T06:25:30.136Z,947
2022-11-24T06:26:30.122Z,947.05
2022-11-24T06:27:30.103Z,947.11
2022-11-24T06:28:30.083Z,947.09
2022-11-24T06:29:30.184Z,947.11
2022-11-24T06:30:30.051Z,947.15
2022-11-24T06:31:30.054Z,947.17
2022-11-24T06:32:30.018Z,947.14
2022-11-24T06:33:30.003Z,947.12
2022-11-24T06:34:29.987Z,947.16
2022-11-24T06:35:29.970Z,947.23
2022-11-24T06:36:29.952Z,947.19
2022-11-24T06:37:29.937Z,947.19
2022-11-24T06:38:29.921Z,947.18
2022-11-24T06:39:29.902Z,947.18
2022-11-24T06:40:29.884Z,947.12
2022-11-24T06:41:29.871Z,947.15
2022-11-24T06:42:29.853Z,947.14
2022-11-24T06:43:29.836Z,947.13
2022-11-24T06:44:29.820Z,947.13
2022-11-24T06:45:29.881Z,947.1
2022-11-24T06:46:29.784Z,947.15
2022-11-24T06:47:29.771Z,947.14
2022-11-24T06:48:29.752Z,947.15
2022-11-24T06:49:29.738Z,947.13
2022-11-24T06:50:33.527Z,947.18
2022-11-24T06:51:29.703Z,947.16
2022-11-24T06:52:29.686Z,947.17
2022-11-24T06:53:29.677Z,947.19
2022-11-24T06:54:29.651Z,947.19
2022-11-24T06:55:29.639Z,947.16
2022-11-24T06:56:29.619Z,947.16
2022-11-24T06:57:29.605Z,947.23
2022-11-24T06:58:29.586Z,947.2
2022-11-24T06:59:29.571Z,947.3
2022-11-24T07:00:29.643Z,947.26
2022-11-24T07:01:29.619Z,947.26
2022-11-24T07:02:29.521Z,947.26
2022-11-24T07:03:29.563Z,947.31
2022-11-24T07:04:29.484Z,947.29
2022-11-24T07:05:29.469Z,947.28
2022-11-24T07:06:29.452Z,947.28
2022-11-24T07:07:29.457Z,947.29
2022-11-24T07:08:29.417Z,947.3
2022-11-24T07:09:29.403Z,947.31
2022-11-24T07:10:29.486Z,947.32
2022-11-24T07:11:29.375Z,947.3
2022-11-24T07:12:29.349Z,947.32
2022-11-24T07:13:29.337Z,947.35
2022-11-24T07:14:29.319Z,947.35
2022-11-24T07:15:29.302Z,947.36
2022-11-24T07:16:29.346Z,947.38
2022-11-24T07:17:29.295Z,947.39
2022-11-24T07:18:29.255Z,947.41
2022-11-24T07:19:29.241Z,947.39
2022-11-24T07:20:29.261Z,947.38
2022-11-24T07:21:29.228Z,947.41
2022-11-24T07:22:29.186Z,947.4
2022-11-24T07:23:29.169Z,947.43
2022-11-24T07:24:29.156Z,947.39
2022-11-24T07:25:29.139Z,947.46
2022-11-24T07:26:29.129Z,947.46
2022-11-24T07:27:29.106Z,947.48
2022-11-24T07:28:29.102Z,947.48
2022-11-24T07:29:29.076Z,947.52
2022-11-24T07:30:29.140Z,947.53
2022-11-24T07:31:29.119Z,947.53
2022-11-24T07:32:29.023Z,947.55
2022-11-24T07:33:29.029Z,947.52
2022-11-24T07:34:28.991Z,947.57
2022-11-24T07:35:28.970Z,947.57
2022-11-24T07:36:28.960Z,947.54
2022-11-24T07:37:31.471Z,947.59
2022-11-24T07:38:28.924Z,947.6
2022-11-24T07:39:28.904Z,947.59
2022-11-24T07:40:28.892Z,947.62
2022-11-24T07:41:28.871Z,947.6
2022-11-24T07:42:28.858Z,947.63
2022-11-24T07:43:28.839Z,947.64
2022-11-24T07:44:28.826Z,947.6
2022-11-24T07:45:28.879Z,947.62
2022-11-24T07:46:28.805Z,947.64
2022-11-24T07:47:28.772Z,947.67
2022-11-24T07:48:28.757Z,947.66
2022-11-24T07:49:28.770Z,947.7
2022-11-24T07:50:28.723Z,947.67
2022-11-24T07:51:28.705Z,947.62
2022-11-24T07:52:28.691Z,947.67
2022-11-24T07:53:28.674Z,947.67
2022-11-24T07:54:28.658Z,947.68
2022-11-24T07:55:28.640Z,947.66
2022-11-24T07:56:28.624Z,947.67
2022-11-24T07:57:28.609Z,947.67
2022-11-24T07:58:32.304Z,947.7
2022-11-24T07:59:28.574Z,947.76
2022-11-24T08:00:28.561Z,947.73
2022-11-24T08:01:28.596Z,947.73
2022-11-24T08:02:28.529Z,947.74
2022-11-24T08:03:28.604Z,947.75
2022-11-24T08:04:28.494Z,947.77
2022-11-24T08:05:28.503Z,947.71
2022-11-24T08:06:32.536Z,947.75
2022-11-24T08:07:28.546Z,947.8
2022-11-24T08:08:28.428Z,947.77
2022-11-24T08:09:28.413Z,947.79
2022-11-24T08:10:28.395Z,947.75
2022-11-24T08:11:28.381Z,947.76
2022-11-24T08:12:28.362Z,947.75
2022-11-24T08:13:28.348Z,947.78
2022-11-24T08:14:28.332Z,947.81
2022-11-24T08:15:28.317Z,947.79
2022-11-24T08:16:28.360Z,947.77
2022-11-24T08:17:28.283Z,947.78
2022-11-24T08:18:28.266Z,947.83
2022-11-24T08:19:28.251Z,947.79
2022-11-24T08:20:28.233Z,947.83
2022-11-24T08:21:28.243Z,947.83
2022-11-24T08:22:28.203Z,947.81
2022-11-24T08:23:28.191Z,947.83
2022-11-24T08:24:28.177Z,947.81
2022-11-24T08:25:28.155Z,947.81
2022-11-24T08:26:28.138Z,947.8
2022-11-24T08:27:28.125Z,947.83
2022-11-24T08:28:28.107Z,947.79
2022-11-24T08:29:28.093Z,947.78
2022-11-24T08:30:28.095Z,947.85
2022-11-24T08:31:28.129Z,947.87
2022-11-24T08:32:28.085Z,947.86
2022-11-24T08:33:28.027Z,947.9
2022-11-24T08:34:28.014Z,947.87
2022-11-24T08:35:27.995Z,947.9
2022-11-24T08:36:27.979Z,947.88
2022-11-24T08:37:27.992Z,947.89
2022-11-24T08:38:27.951Z,947.89
2022-11-24T08:39:27.932Z,947.95
2022-11-24T08:40:27.915Z,947.99
2022-11-24T08:41:27.926Z,948
2022-11-24T08:42:27.883Z,948
2022-11-24T08:43:27.870Z,948.05
2022-11-24T08:44:27.852Z,948.03
2022-11-24T08:45:30.502Z,948.02
2022-11-24T08:46:27.881Z,948.01
2022-11-24T08:47:27.815Z,947.98
2022-11-24T08:48:27.789Z,948.04
2022-11-24T08:49:27.790Z,948.01
2022-11-24T08:50:27.764Z,947.97
2022-11-24T08:51:27.752Z,947.95
2022-11-24T08:52:27.726Z,947.99
2022-11-24T08:53:27.745Z,947.97
2022-11-24T08:54:27.696Z,947.92
2022-11-24T08:55:27.681Z,947.96
2022-11-24T08:56:27.670Z,947.88
2022-11-24T08:57:27.652Z,947.92
2022-11-24T08:58:27.636Z,947.91
2022-11-24T08:59:27.685Z,947.92
2022-11-24T09:00:27.605Z,947.92
2022-11-24T09:01:27.655Z,947.91
2022-11-24T09:02:27.575Z,947.93
2022-11-24T09:03:27.559Z,947.92
2022-11-24T09:04:27.548Z,947.9
2022-11-24T09:06:27.514Z,947.92
2022-11-24T09:07:27.542Z,947.96
2022-11-24T09:08:27.485Z,947.96
2022-11-24T09:09:27.490Z,947.95
2022-11-24T09:10:27.454Z,947.97
2022-11-24T09:11:27.438Z,948.01
2022-11-24T09:12:27.424Z,947.99
2022-11-24T09:13:27.413Z,948.01
2022-11-24T09:14:28.385Z,947.99
2022-11-24T09:15:28.367Z,948.04
2022-11-24T09:16:28.458Z,948.01
2022-11-24T09:17:28.345Z,947.98
2022-11-24T09:18:30.357Z,948
2022-11-24T09:19:28.307Z,947.95
2022-11-24T09:20:28.294Z,947.95
2022-11-24T09:21:28.283Z,948
2022-11-24T09:22:28.263Z,948.04
2022-11-24T09:23:28.249Z,948.02
2022-11-24T09:24:28.234Z,948.04
2022-11-24T09:25:28.239Z,948.04
2022-11-24T09:26:28.203Z,948.07
2022-11-24T09:27:28.187Z,948.08
2022-11-24T09:28:28.173Z,948.08
2022-11-24T09:29:28.154Z,948.12
2022-11-24T09:30:28.141Z,948.11
2022-11-24T09:31:28.241Z,948.1
2022-11-24T09:32:28.213Z,948.04
2022-11-24T09:33:28.094Z,948.07
2022-11-24T09:34:28.083Z,948.07
2022-11-24T09:35:28.068Z,948.12
2022-11-24T09:36:28.053Z,948.08
2022-11-24T09:37:31.273Z,948.07
2022-11-24T09:38:28.022Z,948.09
2022-11-24T09:39:28.007Z,948.09
2022-11-24T09:40:27.994Z,948.12
2022-11-24T09:41:28.013Z,948.11
2022-11-24T09:42:27.963Z,948.1
2022-11-24T09:43:27.947Z,948.1
2022-11-24T09:44:27.933Z,948.12
2022-11-24T09:45:49.236Z,948.15
2022-11-24T09:46:27.955Z,948.12
2022-11-24T09:47:27.891Z,948.11
2022-11-24T09:48:27.873Z,948.17
2022-11-24T09:49:27.859Z,948.1
2022-11-24T09:50:27.844Z,948.18
2022-11-24T09:51:27.829Z,948.15
2022-11-24T09:52:27.813Z,948.16
2022-11-24T09:53:27.802Z,948.16
2022-11-24T09:54:27.784Z,948.15
2022-11-24T09:55:27.774Z,948.17
2022-11-24T09:56:27.753Z,948.16
2022-11-24T09:57:30.387Z,948.16
2022-11-24T09:58:27.726Z,948.2
2022-11-24T09:59:27.713Z,948.22
2022-11-24T10:00:27.700Z,948.17
2022-11-24T10:01:27.745Z,948.22
2022-11-24T10:02:27.667Z,948.23
2022-11-24T10:03:27.653Z,948.18
2022-11-24T10:04:27.665Z,948.24
2022-11-24T10:05:27.626Z,948.23
2022-11-24T10:06:27.611Z,948.21
2022-11-24T10:07:27.612Z,948.25
2022-11-24T10:08:27.582Z,948.27
2022-11-24T10:09:27.567Z,948.26
2022-11-24T10:10:27.552Z,948.28
2022-11-24T10:11:27.537Z,948.27
2022-11-24T10:12:27.528Z,948.26
2022-11-24T10:13:27.546Z,948.28
2022-11-24T10:14:27.492Z,948.33
2022-11-24T10:15:27.494Z,948.28
2022-11-24T10:16:27.547Z,948.34
2022-11-24T10:17:27.453Z,948.33
2022-11-24T10:18:27.435Z,948.36
2022-11-24T10:19:36.217Z,948.4
2022-11-24T10:20:27.406Z,948.36
2022-11-24T10:21:27.393Z,948.43
2022-11-24T10:22:27.376Z,948.39
2022-11-24T10:23:27.367Z,948.38
2022-11-24T10:24:27.349Z,948.37
2022-11-24T10:25:27.337Z,948.42
2022-11-24T10:26:27.320Z,948.41
2022-11-24T10:27:27.307Z,948.43
2022-11-24T10:28:27.294Z,948.42
2022-11-24T10:29:27.307Z,948.43
2022-11-24T10:30:27.268Z,948.41
2022-11-24T10:31:27.328Z,948.37
2022-11-24T10:32:27.237Z,948.38
2022-11-24T10:33:30.755Z,948.36
2022-11-24T10:34:27.207Z,948.36
2022-11-24T10:35:27.194Z,948.37
2022-11-24T10:36:27.181Z,948.35
2022-11-24T10:37:27.169Z,948.37
2022-11-24T10:38:27.152Z,948.39
2022-11-24T10:39:27.152Z,948.33
2022-11-24T10:40:49.017Z,948.41
2022-11-24T10:41:27.122Z,948.42
2022-11-24T10:42:27.098Z,948.4
2022-11-24T10:43:27.097Z,948.38
2022-11-24T10:44:27.071Z,948.41
2022-11-24T10:45:27.081Z,948.41
2022-11-24T10:46:27.182Z,948.36
2022-11-24T10:47:27.027Z,948.4
2022-11-24T10:48:27.013Z,948.41
2022-11-24T10:49:26.999Z,948.4
2022-11-24T10:50:26.986Z,948.42
2022-11-24T10:51:26.972Z,948.39
2022-11-24T10:52:26.958Z,948.41
2022-11-24T10:53:26.942Z,948.37
2022-11-24T10:54:26.928Z,948.4
2022-11-24T10:55:26.914Z,948.4
2022-11-24T10:56:26.902Z,948.36
2022-11-24T10:57:26.886Z,948.38
2022-11-24T10:58:26.873Z,948.41
2022-11-24T10:59:26.858Z,948.35
2022-11-24T11:00:26.843Z,948.41
2022-11-24T11:01:26.923Z,948.39
2022-11-24T11:02:26.845Z,948.41
2022-11-24T11:03:26.801Z,948.41
2022-11-24T11:04:26.789Z,948.43
2022-11-24T11:05:26.789Z,948.44
2022-11-24T11:06:26.759Z,948.48
2022-11-24T11:07:26.787Z,948.46
2022-11-24T11:08:26.735Z,948.42
2022-11-24T11:09:26.713Z,948.43
2022-11-24T11:10:26.706Z,948.48
2022-11-24T11:11:26.689Z,948.48
2022-11-24T11:13:26.655Z,948.53
2022-11-24T11:14:26.644Z,948.48
2022-11-24T11:15:26.877Z,948.48
2022-11-24T11:16:26.702Z,948.49
2022-11-24T11:17:26.629Z,948.58
2022-11-24T11:18:26.587Z,948.55
2022-11-24T11:19:47.718Z,948.52
2022-11-24T11:20:26.559Z,948.59
2022-11-24T11:21:26.544Z,948.57
2022-11-24T11:22:26.529Z,948.55
2022-11-24T11:23:26.515Z,948.6
2022-11-24T11:24:26.503Z,948.6
2022-11-24T11:25:26.485Z,948.58
2022-11-24T11:26:26.472Z,948.58
2022-11-24T11:27:26.457Z,948.66
2022-11-24T11:28:26.448Z,948.62
2022-11-24T11:31:24.515Z,948.66
2022-11-24T11:34:20.813Z,948.64
2022-11-24T11:35:12.550Z,948.63
2022-11-24T11:36:12.538Z,948.62
2022-11-24T11:37:12.525Z,948.66
2022-11-24T11:38:12.508Z,948.69
2022-11-24T11:39:12.496Z,948.68
2022-11-24T11:40:12.729Z,948.68
2022-11-24T11:41:12.466Z,948.67
2022-11-24T11:42:21.184Z,948.72
2022-11-24T11:43:12.441Z,948.72
2022-11-24T11:44:12.423Z,948.67
2022-11-24T11:45:12.422Z,948.68
2022-11-24T11:46:12.532Z,948.72
2022-11-24T11:47:12.431Z,948.7
2022-11-24T11:48:12.366Z,948.72
2022-11-24T11:49:12.696Z,948.68
2022-11-24T11:50:12.724Z,948.68
2022-11-24T11:51:23.152Z,948.69
2022-11-24T11:52:12.654Z,948.69
2022-11-24T11:53:12.638Z,948.69
2022-11-24T11:54:12.625Z,948.71
2022-11-24T11:55:12.613Z,948.75
2022-11-24T11:56:12.600Z,948.72
2022-11-24T11:57:12.582Z,948.74
2022-11-24T11:58:12.567Z,948.73
2022-11-24T11:59:12.557Z,948.72
2022-11-24T12:00:12.626Z,948.72
2022-11-24T12:01:12.527Z,948.69
2022-11-24T12:02:12.567Z,948.65
2022-11-24T12:03:12.571Z,948.66
2022-11-24T12:04:12.631Z,948.67
2022-11-24T12:05:12.472Z,948.64
2022-11-24T12:06:12.488Z,948.67
2022-11-24T12:07:12.490Z,948.63
2022-11-24T12:08:16.073Z,948.65
2022-11-24T12:09:20.123Z,948.67
2022-11-24T12:10:13.115Z,948.63
2022-11-24T12:11:13.085Z,948.64
2022-11-24T12:12:13.067Z,948.65
2022-11-24T12:13:13.056Z,948.62
2022-11-24T12:14:13.059Z,948.61
2022-11-24T12:15:13.035Z,948.62
2022-11-24T12:16:13.080Z,948.6
2022-11-24T12:17:13.003Z,948.62
2022-11-24T12:18:27.029Z,948.62
2022-11-24T12:19:12.977Z,948.65
2022-11-24T12:20:12.962Z,948.64
2022-11-24T12:21:12.947Z,948.61
2022-11-24T12:22:12.964Z,948.6
2022-11-24T12:23:12.921Z,948.67
2022-11-24T12:24:13.007Z,948.69
2022-11-24T12:25:12.895Z,948.66
2022-11-24T12:26:12.880Z,948.68
2022-11-24T12:27:14.801Z,948.64
2022-11-24T12:28:12.855Z,948.68
2022-11-24T12:29:12.836Z,948.7
2022-11-24T12:30:12.967Z,948.71
2022-11-24T12:31:12.918Z,948.74
2022-11-24T12:32:12.821Z,948.72
2022-11-24T12:33:12.808Z,948.72
2022-11-24T12:34:12.794Z,948.75
2022-11-24T12:35:12.780Z,948.76
2022-11-24T12:36:12.770Z,948.79
2022-11-24T12:37:12.754Z,948.82
2022-11-24T12:38:12.764Z,948.74
2022-11-24T12:39:12.726Z,948.87
2022-11-24T12:40:12.715Z,948.84
2022-11-24T12:41:39.542Z,948.84
2022-11-24T12:42:12.688Z,948.83
2022-11-24T12:43:12.672Z,948.84
2022-11-24T12:44:12.661Z,948.86
2022-11-24T12:45:12.663Z,948.89
2022-11-24T12:46:17.191Z,948.91
2022-11-24T12:47:12.763Z,948.89
2022-11-24T12:48:12.608Z,948.94
2022-11-24T12:49:12.591Z,948.9
2022-11-24T12:50:12.579Z,948.93
2022-11-24T12:51:12.563Z,948.96
2022-11-24T12:52:12.559Z,948.95
2022-11-24T12:53:12.538Z,948.99
2022-11-24T12:54:12.548Z,949
2022-11-24T12:55:12.510Z,948.98
2022-11-24T12:56:12.498Z,948.94
2022-11-24T12:57:12.485Z,948.99